createdAt,value
2018-06-23T00:00:37.542Z,14.36
2018-06-23T00:01:37.552Z,14.35
2018-06-23T00:02:37.606Z,14.33
2018-06-23T00:03:37.557Z,14.32
2018-06-23T00:04:37.549Z,14.32
2018-06-23T00:05:37.536Z,14.31
2018-06-23T00:06:37.581Z,14.28
2018-06-23T00:07:37.576Z,14.25
2018-06-23T00:08:37.576Z,14.25
2018-06-23T00:09:37.553Z,14.21
2018-06-23T00:10:37.584Z,14.15
2018-06-23T00:11:37.567Z,14
2018-06-23T00:12:37.524Z,13.98
2018-06-23T00:13:37.554Z,13.97
2018-06-23T00:14:37.545Z,13.94
2018-06-23T00:15:37.555Z,13.88
2018-06-23T00:16:37.569Z,13.85
2018-06-23T00:17:37.531Z,13.81
2018-06-23T00:18:37.619Z,13.8
2018-06-23T00:19:37.729Z,13.8
2018-06-23T00:20:37.585Z,13.8
2018-06-23T00:21:37.541Z,13.76
2018-06-23T00:22:37.665Z,13.74
2018-06-23T00:23:37.585Z,13.72
2018-06-23T00:24:37.558Z,13.7
2018-06-23T00:25:37.588Z,13.7
2018-06-23T00:26:37.568Z,13.69
2018-06-23T00:27:37.640Z,13.63
2018-06-23T00:28:37.537Z,13.55
2018-06-23T00:29:37.548Z,13.55
2018-06-23T00:30:37.567Z,13.54
2018-06-23T00:31:37.530Z,13.54
2018-06-23T00:32:37.568Z,13.56
2018-06-23T00:33:37.528Z,13.58
2018-06-23T00:34:37.563Z,13.56
2018-06-23T00:35:37.578Z,13.58
2018-06-23T00:36:37.562Z,13.59
2018-06-23T00:37:37.571Z,13.59
2018-06-23T00:38:37.706Z,13.58
2018-06-23T00:39:37.543Z,13.58
2018-06-23T00:40:37.604Z,13.58
2018-06-23T00:41:37.543Z,13.59
2018-06-23T00:42:37.568Z,13.59
2018-06-23T00:43:37.549Z,13.58
2018-06-23T00:44:37.576Z,13.58
2018-06-23T00:45:37.599Z,13.58
2018-06-23T00:46:37.720Z,13.58
2018-06-23T00:47:37.565Z,13.58
2018-06-23T00:48:37.615Z,13.6
2018-06-23T00:49:37.586Z,13.57
2018-06-23T00:50:37.747Z,13.6
2018-06-23T00:51:37.595Z,13.58
2018-06-23T00:52:37.645Z,13.62
2018-06-23T00:53:37.734Z,13.63
2018-06-23T00:54:37.561Z,13.63
2018-06-23T00:55:37.581Z,13.64
2018-06-23T00:56:37.588Z,13.64
2018-06-23T00:57:37.634Z,13.67
2018-06-23T00:58:37.621Z,13.64
2018-06-23T00:59:37.721Z,13.63
2018-06-23T01:00:37.628Z,13.66
2018-06-23T01:01:37.726Z,13.64
2018-06-23T01:02:37.568Z,13.64
2018-06-23T01:03:37.596Z,13.61
2018-06-23T01:04:37.623Z,13.64
2018-06-23T01:05:37.679Z,13.63
2018-06-23T01:06:37.749Z,13.63
2018-06-23T01:07:37.555Z,13.62
2018-06-23T01:08:37.606Z,13.61
2018-06-23T01:09:37.614Z,13.58
2018-06-23T01:10:37.598Z,13.6
2018-06-23T01:11:37.602Z,13.58
2018-06-23T01:12:37.595Z,13.61
2018-06-23T01:13:37.562Z,13.6
2018-06-23T01:14:37.564Z,13.6
2018-06-23T01:15:37.602Z,13.57
2018-06-23T01:16:37.577Z,13.55
2018-06-23T01:17:37.631Z,13.53
2018-06-23T01:18:37.573Z,13.5
2018-06-23T01:19:37.581Z,13.5
2018-06-23T01:20:37.568Z,13.47
2018-06-23T01:21:37.582Z,13.45
2018-06-23T01:22:37.643Z,13.45
2018-06-23T01:23:37.585Z,13.41
2018-06-23T01:24:37.574Z,13.38
2018-06-23T01:25:37.621Z,13.37
2018-06-23T01:26:37.591Z,13.39
2018-06-23T01:27:37.636Z,13.36
2018-06-23T01:28:37.595Z,13.32
2018-06-23T01:29:37.593Z,13.25
2018-06-23T01:30:37.598Z,13.23
2018-06-23T01:31:37.579Z,13.24
2018-06-23T01:32:37.879Z,13.2
2018-06-23T01:33:37.780Z,13.2
2018-06-23T01:34:37.643Z,13.2
2018-06-23T01:35:37.656Z,13.21
2018-06-23T01:36:37.665Z,13.17
2018-06-23T01:37:37.640Z,13.13
2018-06-23T01:38:37.652Z,13.1
2018-06-23T01:39:37.622Z,13.05
2018-06-23T01:40:37.960Z,13.04
2018-06-23T01:41:37.605Z,13
2018-06-23T01:42:37.699Z,12.97
2018-06-23T01:43:37.626Z,12.94
2018-06-23T01:44:37.624Z,12.93
2018-06-23T01:45:37.636Z,12.87
2018-06-23T01:46:37.624Z,12.85
2018-06-23T01:47:37.600Z,12.84
2018-06-23T01:48:37.625Z,12.83
2018-06-23T01:49:37.651Z,12.76
2018-06-23T01:50:37.603Z,12.75
2018-06-23T01:51:37.617Z,12.74
2018-06-23T01:52:37.610Z,12.71
2018-06-23T01:53:37.614Z,12.67
2018-06-23T01:54:37.766Z,12.62
2018-06-23T01:55:37.612Z,12.57
2018-06-23T01:56:37.741Z,12.61
2018-06-23T01:57:37.739Z,12.59
2018-06-23T01:58:37.624Z,12.59
2018-06-23T01:59:37.692Z,12.53
2018-06-23T02:00:37.635Z,12.53
2018-06-23T02:01:37.712Z,12.52
2018-06-23T02:02:37.590Z,12.53
2018-06-23T02:03:37.682Z,12.52
2018-06-23T02:04:37.661Z,12.52
2018-06-23T02:05:37.651Z,12.57
2018-06-23T02:06:37.646Z,12.54
2018-06-23T02:07:37.766Z,12.53
2018-06-23T02:08:37.610Z,12.54
2018-06-23T02:09:37.715Z,12.52
2018-06-23T02:10:37.599Z,12.52
2018-06-23T02:11:37.631Z,12.52
2018-06-23T02:12:37.650Z,12.52
2018-06-23T02:13:37.610Z,12.52
2018-06-23T02:14:37.646Z,12.53
2018-06-23T02:15:37.631Z,12.53
2018-06-23T02:16:37.615Z,12.54
2018-06-23T02:17:37.629Z,12.54
2018-06-23T02:18:37.650Z,12.53
2018-06-23T02:19:37.649Z,12.52
2018-06-23T02:20:37.632Z,12.51
2018-06-23T02:21:37.651Z,12.52
2018-06-23T02:22:37.638Z,12.52
2018-06-23T02:23:37.626Z,12.52
2018-06-23T02:24:37.615Z,12.53
2018-06-23T02:25:37.616Z,12.55
2018-06-23T02:26:37.618Z,12.51
2018-06-23T02:27:37.622Z,12.51
2018-06-23T02:28:37.622Z,12.52
2018-06-23T02:29:37.652Z,12.52
2018-06-23T02:30:37.611Z,12.55
2018-06-23T02:31:37.633Z,12.52
2018-06-23T02:32:37.659Z,12.54
2018-06-23T02:33:37.624Z,12.52
2018-06-23T02:34:37.643Z,12.52
2018-06-23T02:35:37.651Z,12.51
2018-06-23T02:36:37.641Z,12.5
2018-06-23T02:37:37.657Z,12.46
2018-06-23T02:38:37.644Z,12.44
2018-06-23T02:39:37.677Z,12.42
2018-06-23T02:40:37.672Z,12.41
2018-06-23T02:41:37.687Z,12.44
2018-06-23T02:42:37.828Z,12.44
2018-06-23T02:43:37.650Z,12.43
2018-06-23T02:44:37.650Z,12.43
2018-06-23T02:45:37.644Z,12.4
2018-06-23T02:46:37.675Z,12.29
2018-06-23T02:47:37.668Z,12.26
2018-06-23T02:48:37.709Z,12.22
2018-06-23T02:49:38.066Z,12.12
2018-06-23T02:50:37.667Z,12.01
2018-06-23T02:51:37.866Z,11.88
2018-06-23T02:52:37.709Z,11.93
2018-06-23T02:53:37.793Z,11.95
2018-06-23T02:54:37.700Z,11.95
2018-06-23T02:55:37.691Z,11.91
2018-06-23T02:56:37.707Z,11.94
2018-06-23T02:57:37.701Z,11.98
2018-06-23T02:58:38.042Z,11.97
2018-06-23T02:59:37.785Z,11.91
2018-06-23T03:00:37.674Z,11.94
2018-06-23T03:01:37.676Z,11.95
2018-06-23T03:02:37.661Z,11.96
2018-06-23T03:03:37.744Z,12.01
2018-06-23T03:04:37.687Z,11.99
2018-06-23T03:05:37.667Z,11.99
2018-06-23T03:06:37.658Z,11.99
2018-06-23T03:07:37.638Z,11.97
2018-06-23T03:08:37.670Z,11.99
2018-06-23T03:09:37.699Z,12
2018-06-23T03:10:37.666Z,12
2018-06-23T03:11:37.690Z,11.99
2018-06-23T03:12:37.672Z,11.92
2018-06-23T03:13:37.715Z,11.89
2018-06-23T03:14:37.648Z,11.87
2018-06-23T03:15:37.733Z,11.92
2018-06-23T03:16:37.664Z,11.93
2018-06-23T03:17:37.747Z,11.94
2018-06-23T03:18:37.673Z,11.94
2018-06-23T03:19:37.690Z,11.93
2018-06-23T03:20:37.839Z,11.93
2018-06-23T03:21:37.713Z,11.93
2018-06-23T03:22:37.758Z,11.91
2018-06-23T03:23:37.657Z,11.91
2018-06-23T03:24:37.682Z,11.93
2018-06-23T03:25:37.699Z,11.92
2018-06-23T03:26:37.745Z,11.89
2018-06-23T03:27:37.739Z,11.88
2018-06-23T03:28:37.705Z,11.86
2018-06-23T03:29:37.688Z,11.85
2018-06-23T03:30:37.648Z,11.86
2018-06-23T03:31:37.639Z,11.86
2018-06-23T03:32:37.666Z,11.87
2018-06-23T03:33:37.656Z,11.8
2018-06-23T03:34:37.686Z,11.77
2018-06-23T03:35:37.664Z,11.78
2018-06-23T03:36:37.693Z,11.77
2018-06-23T03:37:37.677Z,11.8
2018-06-23T03:38:37.686Z,11.78
2018-06-23T03:39:37.680Z,11.8
2018-06-23T03:40:37.671Z,11.78
2018-06-23T03:41:37.643Z,11.79
2018-06-23T03:42:37.643Z,11.73
2018-06-23T03:43:37.691Z,11.75
2018-06-23T03:44:37.648Z,11.79
2018-06-23T03:45:37.713Z,11.76
2018-06-23T03:46:37.740Z,11.8
2018-06-23T03:47:37.681Z,11.76
2018-06-23T03:48:37.725Z,11.77
2018-06-23T03:49:37.687Z,11.79
2018-06-23T03:50:37.695Z,11.8
2018-06-23T03:51:37.696Z,11.84
2018-06-23T03:52:37.709Z,11.85
2018-06-23T03:53:37.798Z,11.82
2018-06-23T03:54:37.729Z,11.88
2018-06-23T03:55:37.698Z,11.88
2018-06-23T03:56:37.715Z,11.87
2018-06-23T03:57:37.757Z,11.88
2018-06-23T03:58:37.662Z,11.9
2018-06-23T03:59:37.714Z,11.9
2018-06-23T04:00:37.716Z,11.93
2018-06-23T04:01:37.686Z,11.92
2018-06-23T04:02:37.653Z,11.91
2018-06-23T04:03:37.697Z,11.92
2018-06-23T04:04:37.688Z,11.91
2018-06-23T04:05:37.740Z,11.94
2018-06-23T04:06:37.702Z,11.95
2018-06-23T04:07:37.689Z,11.96
2018-06-23T04:08:37.693Z,11.99
2018-06-23T04:09:37.890Z,11.95
2018-06-23T04:10:37.673Z,11.92
2018-06-23T04:11:37.741Z,11.93
2018-06-23T04:12:37.755Z,11.97
2018-06-23T04:13:37.898Z,11.99
2018-06-23T04:14:37.806Z,11.99
2018-06-23T04:15:37.910Z,12
2018-06-23T04:16:37.718Z,12
2018-06-23T04:17:37.687Z,11.91
2018-06-23T04:18:37.681Z,11.93
2018-06-23T04:19:37.684Z,11.91
2018-06-23T04:20:37.725Z,11.94
2018-06-23T04:21:37.711Z,11.92
2018-06-23T04:22:37.958Z,11.96
2018-06-23T04:23:37.666Z,11.98
2018-06-23T04:24:37.675Z,12
2018-06-23T04:25:37.722Z,12.03
2018-06-23T04:26:37.732Z,12.06
2018-06-23T04:27:37.780Z,12.08
2018-06-23T04:28:37.732Z,12.05
2018-06-23T04:29:37.703Z,12.09
2018-06-23T04:30:37.689Z,12.11
2018-06-23T04:31:37.755Z,12.12
2018-06-23T04:32:37.918Z,12.14
2018-06-23T04:33:37.867Z,12.17
2018-06-23T04:34:37.701Z,12.21
2018-06-23T04:35:37.699Z,12.2
2018-06-23T04:36:37.698Z,12.22
2018-06-23T04:37:37.826Z,12.22
2018-06-23T04:38:37.681Z,12.14
2018-06-23T04:39:37.726Z,11.92
2018-06-23T04:40:37.698Z,11.95
2018-06-23T04:41:37.711Z,12
2018-06-23T04:42:37.735Z,12.03
2018-06-23T04:43:37.726Z,12.08
2018-06-23T04:44:37.717Z,12.06
2018-06-23T04:45:37.754Z,12.04
2018-06-23T04:46:37.733Z,12.06
2018-06-23T04:47:37.693Z,12.12
2018-06-23T04:48:37.688Z,12.15
2018-06-23T04:49:37.693Z,12.17
2018-06-23T04:50:37.720Z,12.18
2018-06-23T04:51:37.718Z,12.2
2018-06-23T04:52:37.776Z,12.18
2018-06-23T04:53:37.712Z,12.2
2018-06-23T04:54:37.741Z,12.2
2018-06-23T04:55:37.868Z,12.22
2018-06-23T04:56:37.726Z,12.2
2018-06-23T04:57:37.801Z,12.15
2018-06-23T04:58:37.726Z,12.19
2018-06-23T04:59:37.772Z,12.21
2018-06-23T05:00:37.761Z,12.26
2018-06-23T05:01:37.807Z,12.29
2018-06-23T05:02:37.783Z,12.31
2018-06-23T05:03:38.172Z,12.26
2018-06-23T05:04:37.695Z,12.27
2018-06-23T05:05:37.703Z,12.32
2018-06-23T05:06:37.925Z,12.35
2018-06-23T05:07:37.745Z,12.38
2018-06-23T05:08:37.707Z,12.29
2018-06-23T05:09:38.111Z,12.32
2018-06-23T05:10:37.691Z,12.37
2018-06-23T05:11:37.822Z,12.4
2018-06-23T05:12:37.769Z,12.34
2018-06-23T05:13:37.855Z,12.38
2018-06-23T05:14:37.829Z,12.35
2018-06-23T05:15:37.750Z,12.39
2018-06-23T05:16:38.042Z,12.41
2018-06-23T05:17:37.712Z,12.45
2018-06-23T05:18:37.862Z,12.44
2018-06-23T05:19:37.739Z,12.36
2018-06-23T05:20:37.878Z,12.37
2018-06-23T05:21:37.700Z,12.29
2018-06-23T05:22:37.814Z,12.31
2018-06-23T05:23:37.714Z,12.3
2018-06-23T05:24:37.876Z,12.32
2018-06-23T05:25:37.728Z,12.33
2018-06-23T05:26:37.747Z,12.34
2018-06-23T05:27:37.716Z,12.38
2018-06-23T05:28:37.776Z,12.39
2018-06-23T05:29:37.782Z,12.4
2018-06-23T05:30:38.032Z,12.38
2018-06-23T05:31:38.128Z,12.39
2018-06-23T05:32:37.786Z,12.38
2018-06-23T05:33:37.741Z,12.39
2018-06-23T05:34:37.754Z,12.46
2018-06-23T05:35:37.740Z,12.49
2018-06-23T05:36:37.727Z,12.44
2018-06-23T05:37:38.078Z,12.46
2018-06-23T05:38:37.738Z,12.46
2018-06-23T05:39:37.720Z,12.48
2018-06-23T05:40:37.755Z,12.51
2018-06-23T05:41:37.747Z,12.49
2018-06-23T05:42:37.747Z,12.51
2018-06-23T05:43:37.722Z,12.56
2018-06-23T05:44:37.754Z,12.55
2018-06-23T05:45:37.801Z,12.57
2018-06-23T05:46:37.783Z,12.62
2018-06-23T05:47:37.790Z,12.68
2018-06-23T05:48:37.763Z,12.71
2018-06-23T05:49:37.736Z,12.76
2018-06-23T05:50:37.768Z,12.78
2018-06-23T05:51:37.863Z,12.76
2018-06-23T05:52:37.805Z,12.78
2018-06-23T05:53:37.817Z,12.82
2018-06-23T05:54:37.781Z,12.81
2018-06-23T05:55:37.751Z,12.83
2018-06-23T05:56:37.840Z,12.86
2018-06-23T05:57:37.750Z,12.9
2018-06-23T05:58:37.778Z,12.94
2018-06-23T05:59:37.977Z,12.94
2018-06-23T06:00:38.253Z,12.99
2018-06-23T06:01:37.810Z,13.03
2018-06-23T06:02:37.793Z,13.05
2018-06-23T06:03:37.751Z,13.05
2018-06-23T06:04:37.873Z,13.04
2018-06-23T06:05:37.956Z,13.1
2018-06-23T06:06:37.761Z,13.07
2018-06-23T06:07:37.830Z,13.05
2018-06-23T06:08:37.759Z,13.09
2018-06-23T06:09:37.785Z,13.11
2018-06-23T06:10:37.819Z,13.11
2018-06-23T06:11:38.071Z,13.1
2018-06-23T06:12:37.758Z,13.05
2018-06-23T06:13:37.756Z,13.07
2018-06-23T06:14:37.841Z,13.11
2018-06-23T06:15:37.847Z,13.14
2018-06-23T06:16:37.814Z,13.15
2018-06-23T06:17:37.777Z,13.19
2018-06-23T06:18:37.768Z,13.26
2018-06-23T06:19:37.800Z,13.26
2018-06-23T06:20:37.778Z,13.31
2018-06-23T06:21:37.788Z,13.35
2018-06-23T06:22:37.766Z,13.36
2018-06-23T06:23:37.817Z,13.36
2018-06-23T06:24:37.775Z,13.4
2018-06-23T06:25:37.782Z,13.43
2018-06-23T06:26:37.779Z,13.47
2018-06-23T06:27:37.799Z,13.51
2018-06-23T06:28:37.820Z,13.56
2018-06-23T06:29:37.757Z,13.51
2018-06-23T06:30:37.748Z,13.52
2018-06-23T06:31:37.748Z,13.49
2018-06-23T06:32:37.784Z,13.41
2018-06-23T06:33:37.795Z,13.4
2018-06-23T06:34:37.824Z,13.41
2018-06-23T06:35:38.016Z,13.43
2018-06-23T06:36:37.755Z,13.41
2018-06-23T06:37:37.788Z,13.38
2018-06-23T06:38:37.789Z,13.35
2018-06-23T06:39:37.745Z,13.37
2018-06-23T06:40:37.803Z,13.42
2018-06-23T06:41:37.849Z,13.49
2018-06-23T06:42:37.822Z,13.49
2018-06-23T06:43:37.771Z,13.52
2018-06-23T06:44:38.591Z,13.57
2018-06-23T06:45:37.789Z,13.63
2018-06-23T06:46:37.764Z,13.7
2018-06-23T06:47:37.815Z,13.76
2018-06-23T06:48:37.795Z,13.67
2018-06-23T06:49:37.873Z,13.7
2018-06-23T06:50:37.794Z,13.71
2018-06-23T06:51:37.951Z,13.72
2018-06-23T06:52:37.856Z,13.74
2018-06-23T06:53:37.902Z,13.78
2018-06-23T06:54:37.905Z,13.83
2018-06-23T06:55:37.772Z,13.87
2018-06-23T06:56:37.847Z,13.9
2018-06-23T06:57:37.934Z,13.98
2018-06-23T06:58:37.807Z,13.98
2018-06-23T06:59:37.862Z,13.99
2018-06-23T07:00:37.766Z,14.02
2018-06-23T07:01:37.848Z,14.01
2018-06-23T07:02:37.880Z,14.06
2018-06-23T07:03:37.949Z,14.1
2018-06-23T07:04:37.775Z,14.07
2018-06-23T07:05:37.775Z,14.06
2018-06-23T07:06:37.973Z,14.07
2018-06-23T07:07:37.790Z,14.12
2018-06-23T07:08:37.788Z,14.14
2018-06-23T07:09:37.796Z,14.27
2018-06-23T07:10:37.786Z,14.35
2018-06-23T07:11:37.792Z,14.31
2018-06-23T07:12:37.803Z,14.29
2018-06-23T07:13:37.793Z,14.26
2018-06-23T07:14:37.800Z,14.27
2018-06-23T07:15:38.554Z,14.22
2018-06-23T07:16:37.988Z,14.2
2018-06-23T07:17:38.318Z,14.25
2018-06-23T07:18:37.793Z,14.21
2018-06-23T07:19:37.822Z,14.31
2018-06-23T07:20:37.841Z,14.34
2018-06-23T07:21:37.863Z,14.4
2018-06-23T07:22:37.796Z,14.44
2018-06-23T07:23:39.257Z,14.42
2018-06-23T07:24:37.922Z,14.46
2018-06-23T07:25:37.823Z,14.49
2018-06-23T07:26:37.793Z,14.49
2018-06-23T07:27:37.862Z,14.54
2018-06-23T07:28:37.809Z,14.55
2018-06-23T07:29:37.824Z,14.64
2018-06-23T07:30:37.817Z,14.71
2018-06-23T07:31:37.829Z,14.75
2018-06-23T07:32:37.826Z,14.71
2018-06-23T07:33:37.779Z,14.67
2018-06-23T07:34:38.955Z,14.74
2018-06-23T07:35:37.816Z,14.66
2018-06-23T07:36:37.791Z,14.63
2018-06-23T07:37:37.865Z,14.82
2018-06-23T07:38:37.814Z,14.75
2018-06-23T07:39:37.815Z,14.8
2018-06-23T07:40:38.239Z,14.84
2018-06-23T07:41:37.825Z,14.9
2018-06-23T07:42:37.830Z,14.85
2018-06-23T07:43:37.796Z,14.82
2018-06-23T07:44:37.817Z,14.79
2018-06-23T07:45:37.811Z,14.88
2018-06-23T07:46:38.385Z,14.88
2018-06-23T07:47:37.831Z,14.87
2018-06-23T07:48:37.885Z,14.93
2018-06-23T07:49:37.822Z,15.05
2018-06-23T07:50:37.869Z,15.09
2018-06-23T07:51:37.835Z,15.19
2018-06-23T07:52:37.814Z,15.32
2018-06-23T07:53:37.841Z,15.33
2018-06-23T07:54:37.805Z,15.39
2018-06-23T07:55:37.908Z,15.29
2018-06-23T07:56:37.845Z,15.31
2018-06-23T07:57:37.828Z,15.27
2018-06-23T07:58:37.788Z,15.29
2018-06-23T07:59:37.919Z,15.36
2018-06-23T08:00:37.811Z,15.38
2018-06-23T08:01:38.347Z,15.3
2018-06-23T08:02:37.796Z,15.08
2018-06-23T08:03:38.039Z,14.91
2018-06-23T08:04:37.985Z,14.96
2018-06-23T08:05:37.958Z,14.86
2018-06-23T08:06:37.815Z,14.96
2018-06-23T08:07:37.849Z,14.99
2018-06-23T08:08:37.938Z,15.06
2018-06-23T08:09:37.809Z,15.08
2018-06-23T08:10:37.824Z,15.11
2018-06-23T08:11:38.394Z,15.19
2018-06-23T08:12:37.821Z,15.24
2018-06-23T08:13:37.816Z,15.24
2018-06-23T08:14:37.860Z,15.26
2018-06-23T08:15:37.850Z,15.25
2018-06-23T08:16:37.827Z,15.27
2018-06-23T08:17:37.815Z,15.25
2018-06-23T08:18:38.571Z,15.25
2018-06-23T08:19:37.811Z,15.29
2018-06-23T08:20:37.850Z,15.2
2018-06-23T08:21:37.820Z,15.17
2018-06-23T08:22:37.833Z,15.2
2018-06-23T08:23:37.839Z,15.19
2018-06-23T08:24:37.863Z,15.18
2018-06-23T08:25:37.884Z,15.2
2018-06-23T08:26:39.240Z,15.19
2018-06-23T08:27:37.860Z,15.19
2018-06-23T08:28:37.890Z,15.18
2018-06-23T08:29:37.865Z,15.22
2018-06-23T08:30:37.865Z,15.25
2018-06-23T08:31:37.908Z,15.31
2018-06-23T08:32:37.860Z,15.37
2018-06-23T08:33:37.823Z,15.44
2018-06-23T08:34:37.895Z,15.43
2018-06-23T08:35:37.816Z,15.52
2018-06-23T08:36:37.839Z,15.6
2018-06-23T08:37:38.099Z,15.6
2018-06-23T08:38:37.826Z,15.59
2018-06-23T08:39:37.895Z,15.58
2018-06-23T08:40:37.858Z,15.46
2018-06-23T08:41:37.830Z,15.42
2018-06-23T08:42:37.820Z,15.42
2018-06-23T08:43:38.336Z,15.4
2018-06-23T08:44:37.889Z,15.26
2018-06-23T08:45:37.876Z,15.29
2018-06-23T08:46:37.832Z,15.26
2018-06-23T08:47:37.840Z,15.3
2018-06-23T08:48:37.846Z,15.3
2018-06-23T08:49:37.852Z,15.31
2018-06-23T08:50:37.890Z,15.37
2018-06-23T08:51:37.836Z,15.37
2018-06-23T08:52:37.830Z,15.37
2018-06-23T08:53:37.881Z,15.37
2018-06-23T08:54:37.915Z,15.44
2018-06-23T08:55:37.910Z,15.5
2018-06-23T08:56:42.538Z,15.61
2018-06-23T08:57:38.042Z,15.63
2018-06-23T08:58:37.934Z,15.68
2018-06-23T08:59:37.846Z,15.81
2018-06-23T09:00:37.939Z,15.82
2018-06-23T09:01:37.961Z,15.67
2018-06-23T09:02:38.166Z,15.67
2018-06-23T09:03:37.993Z,15.8
2018-06-23T09:04:38.092Z,15.86
2018-06-23T09:05:37.894Z,15.75
2018-06-23T09:06:37.987Z,15.76
2018-06-23T09:07:37.880Z,15.8
2018-06-23T09:08:38.011Z,15.79
2018-06-23T09:09:38.035Z,15.8
2018-06-23T09:10:38.230Z,15.74
2018-06-23T09:11:38.010Z,15.77
2018-06-23T09:12:38.418Z,15.83
2018-06-23T09:13:38.402Z,15.89
2018-06-23T09:14:38.182Z,15.9
2018-06-23T09:15:37.975Z,15.96
2018-06-23T09:16:38.045Z,16.04
2018-06-23T09:17:38.119Z,16.01
2018-06-23T09:18:38.059Z,16.08
2018-06-23T09:19:39.671Z,16.07
2018-06-23T09:20:38.001Z,16.08
2018-06-23T09:21:38.130Z,16.16
2018-06-23T09:22:38.163Z,16.14
2018-06-23T09:23:38.009Z,16.19
2018-06-23T09:24:37.981Z,16.23
2018-06-23T09:25:38.332Z,16.32
2018-06-23T09:26:37.949Z,16.33
2018-06-23T09:27:38.081Z,16.36
2018-06-23T09:28:37.909Z,16.29
2018-06-23T09:29:38.026Z,16.28
2018-06-23T09:30:37.967Z,16.25
2018-06-23T09:31:37.841Z,16.19
2018-06-23T09:32:38.091Z,16.22
2018-06-23T09:33:37.928Z,16.28
2018-06-23T09:34:37.949Z,16.38
2018-06-23T09:35:37.885Z,16.37
2018-06-23T09:36:37.906Z,16.4
2018-06-23T09:37:38.100Z,16.36
2018-06-23T09:38:38.058Z,16.34
2018-06-23T09:39:38.062Z,16.46
2018-06-23T09:40:37.884Z,16.43
2018-06-23T09:41:38.975Z,16.47
2018-06-23T09:42:37.954Z,16.57
2018-06-23T09:43:37.852Z,16.56
2018-06-23T09:44:38.047Z,16.57
2018-06-23T09:45:37.874Z,16.54
2018-06-23T09:46:38.150Z,16.6
2018-06-23T09:47:38.061Z,16.63
2018-06-23T09:48:37.970Z,16.68
2018-06-23T09:49:38.117Z,16.78
2018-06-23T09:50:38.040Z,16.87
2018-06-23T09:51:38.100Z,16.88
2018-06-23T09:52:38.106Z,16.86
2018-06-23T09:53:38.003Z,16.87
2018-06-23T09:54:38.051Z,16.89
2018-06-23T09:55:38.042Z,16.89
2018-06-23T09:56:37.946Z,16.85
2018-06-23T09:57:38.047Z,16.88
2018-06-23T09:58:38.032Z,16.88
2018-06-23T09:59:38.074Z,16.92
2018-06-23T10:00:38.061Z,16.94
2018-06-23T10:01:37.906Z,16.98
2018-06-23T10:02:38.047Z,17.03
2018-06-23T10:03:38.082Z,17.1
2018-06-23T10:04:37.996Z,17.15
2018-06-23T10:05:37.983Z,17.17
2018-06-23T10:06:37.896Z,17.2
2018-06-23T10:07:37.875Z,17.08
2018-06-23T10:08:38.911Z,17.1
2018-06-23T10:09:37.906Z,17.04
2018-06-23T10:10:37.858Z,17.07
2018-06-23T10:11:38.009Z,17.15
2018-06-23T10:12:38.049Z,17.22
2018-06-23T10:13:38.040Z,17.25
2018-06-23T10:14:38.084Z,17.32
2018-06-23T10:15:37.895Z,17.28
2018-06-23T10:16:38.470Z,17.3
2018-06-23T10:17:38.480Z,17.46
2018-06-23T10:18:37.918Z,17.46
2018-06-23T10:19:37.968Z,17.51
2018-06-23T10:20:38.289Z,17.51
2018-06-23T10:21:38.008Z,17.38
2018-06-23T10:22:38.277Z,17.34
2018-06-23T10:23:37.988Z,17.39
2018-06-23T10:24:39.037Z,17.53
2018-06-23T10:25:37.943Z,17.6
2018-06-23T10:26:38.029Z,17.61
2018-06-23T10:27:37.971Z,17.64
2018-06-23T10:28:37.906Z,17.65
2018-06-23T10:29:38.033Z,17.56
2018-06-23T10:30:37.940Z,17.72
2018-06-23T10:31:37.905Z,17.78
2018-06-23T10:32:38.590Z,17.77
2018-06-23T10:33:37.955Z,17.88
2018-06-23T10:34:37.918Z,17.85
2018-06-23T10:35:38.084Z,17.85
2018-06-23T10:36:37.918Z,17.85
2018-06-23T10:37:37.998Z,17.97
2018-06-23T10:38:39.259Z,18.16
2018-06-23T10:39:37.954Z,18.14
2018-06-23T10:40:38.092Z,17.95
2018-06-23T10:41:38.053Z,18.01
2018-06-23T10:42:37.928Z,18.05
2018-06-23T10:43:37.988Z,18.11
2018-06-23T10:44:37.930Z,18.25
2018-06-23T10:45:38.053Z,18.21
2018-06-23T10:46:37.937Z,18.23
2018-06-23T10:47:38.186Z,18.3
2018-06-23T10:48:37.941Z,18.32
2018-06-23T10:49:37.913Z,18.29
2018-06-23T10:50:38.281Z,18.09
2018-06-23T10:51:38.141Z,17.95
2018-06-23T10:52:38.116Z,18.08
2018-06-23T10:53:38.192Z,18.1
2018-06-23T10:54:38.012Z,18.12
2018-06-23T10:55:38.052Z,18.13
2018-06-23T10:56:38.152Z,18.22
2018-06-23T10:57:37.871Z,18.3
2018-06-23T10:58:38.187Z,18.42
2018-06-23T10:59:38.236Z,18.56
2018-06-23T11:00:38.074Z,18.56
2018-06-23T11:01:38.114Z,18.59
2018-06-23T11:02:38.132Z,18.66
2018-06-23T11:03:38.138Z,18.65
2018-06-23T11:04:39.186Z,18.63
2018-06-23T11:05:38.178Z,18.62
2018-06-23T11:06:37.919Z,18.64
2018-06-23T11:07:37.960Z,18.65
2018-06-23T11:08:38.008Z,18.63
2018-06-23T11:09:37.951Z,18.63
2018-06-23T11:10:37.951Z,18.48
2018-06-23T11:11:38.065Z,18.37
2018-06-23T11:12:37.912Z,18.45
2018-06-23T11:13:37.935Z,18.54
2018-06-23T11:14:38.052Z,18.64
2018-06-23T11:15:38.036Z,18.63
2018-06-23T11:16:37.928Z,18.73
2018-06-23T11:17:37.984Z,18.56
2018-06-23T11:18:38.079Z,18.64
2018-06-23T11:19:38.179Z,18.72
2018-06-23T11:20:38.076Z,18.75
2018-06-23T11:21:37.944Z,18.86
2018-06-23T11:22:37.982Z,18.88
2018-06-23T11:23:38.122Z,18.79
2018-06-23T11:24:39.689Z,18.8
2018-06-23T11:25:38.194Z,18.64
2018-06-23T11:26:37.939Z,18.7
2018-06-23T11:27:38.018Z,19.02
2018-06-23T11:28:38.128Z,18.82
2018-06-23T11:29:38.047Z,18.89
2018-06-23T11:30:38.169Z,18.97
2018-06-23T11:31:37.986Z,18.99
2018-06-23T11:32:38.053Z,18.94
2018-06-23T11:33:37.963Z,18.98
2018-06-23T11:34:37.976Z,18.99
2018-06-23T11:35:38.076Z,19.09
2018-06-23T11:36:37.971Z,18.95
2018-06-23T11:37:38.041Z,18.99
2018-06-23T11:38:37.943Z,18.96
2018-06-23T11:39:38.033Z,19.1
2018-06-23T11:40:38.323Z,19.18
2018-06-23T11:41:43.151Z,19.25
2018-06-23T11:42:38.148Z,19.23
2018-06-23T11:43:37.949Z,19.27
2018-06-23T11:44:37.968Z,19.3
2018-06-23T11:45:38.006Z,19.2
2018-06-23T11:46:38.713Z,19.16
2018-06-23T11:47:38.197Z,18.98
2018-06-23T11:48:38.056Z,19.16
2018-06-23T11:49:37.950Z,19.27
2018-06-23T11:50:38.221Z,19.28
2018-06-23T11:51:38.152Z,19.29
2018-06-23T11:52:38.236Z,19.41
2018-06-23T11:53:38.121Z,19.36
2018-06-23T11:54:38.271Z,19.25
2018-06-23T11:55:38.288Z,19.26
2018-06-23T11:56:38.292Z,19.34
2018-06-23T11:57:38.366Z,19.44
2018-06-23T11:58:38.295Z,19.43
2018-06-23T11:59:38.044Z,19.53
2018-06-23T12:00:38.009Z,19.78
2018-06-23T12:01:37.955Z,19.91
2018-06-23T12:02:38.121Z,19.9
2018-06-23T12:03:38.016Z,19.89
2018-06-23T12:04:38.112Z,19.96
2018-06-23T12:05:38.289Z,20.01
2018-06-23T12:06:38.110Z,20.03
2018-06-23T12:07:38.128Z,20.09
2018-06-23T12:08:38.105Z,20.13
2018-06-23T12:09:37.968Z,20.23
2018-06-23T12:10:38.137Z,20.28
2018-06-23T12:11:38.346Z,20.36
2018-06-23T12:12:37.970Z,20.27
2018-06-23T12:13:39.070Z,20.28
2018-06-23T12:14:38.044Z,20.27
2018-06-23T12:15:37.965Z,20.35
2018-06-23T12:16:37.978Z,20.44
2018-06-23T12:17:38.053Z,20.49
2018-06-23T12:18:38.014Z,20.59
2018-06-23T12:19:37.959Z,20.52
2018-06-23T12:20:38.116Z,20.53
2018-06-23T12:21:37.972Z,20.43
2018-06-23T12:22:38.023Z,20.43
2018-06-23T12:23:38.021Z,20.41
2018-06-23T12:24:38.112Z,20.42
2018-06-23T12:25:37.998Z,20.47
2018-06-23T12:26:38.026Z,20.48
2018-06-23T12:27:38.150Z,20.41
2018-06-23T12:28:37.988Z,20.33
2018-06-23T12:29:38.148Z,20.37
2018-06-23T12:30:37.972Z,20.54
2018-06-23T12:31:38.120Z,20.51
2018-06-23T12:32:38.087Z,20.55
2018-06-23T12:33:38.232Z,20.44
2018-06-23T12:34:38.106Z,20.26
2018-06-23T12:35:38.315Z,20.23
2018-06-23T12:36:38.305Z,20.2
2018-06-23T12:37:38.012Z,20.24
2018-06-23T12:38:38.131Z,20.23
2018-06-23T12:39:38.230Z,20.4
2018-06-23T12:40:38.149Z,20.58
2018-06-23T12:41:39.480Z,20.83
2018-06-23T12:42:38.035Z,20.78
2018-06-23T12:43:38.136Z,20.74
2018-06-23T12:44:38.262Z,20.86
2018-06-23T12:45:38.064Z,20.91
2018-06-23T12:46:38.103Z,20.88
2018-06-23T12:47:38.191Z,20.85
2018-06-23T12:48:38.118Z,20.95
2018-06-23T12:49:37.995Z,20.93
2018-06-23T12:50:38.190Z,20.76
2018-06-23T12:51:38.147Z,20.63
2018-06-23T12:52:38.014Z,20.63
2018-06-23T12:53:38.108Z,20.59
2018-06-23T12:54:38.127Z,20.69
2018-06-23T12:55:38.134Z,20.88